HSNN

Nyala Airport

Nyala, Sudan
METAR HSNN 151100Z 06010KT 6000 28/M05 Q1017
Observed Flight Rules
Feb-15 @ 11:00 UTC (8 hours ago)
Wind Visibility
60° at 10 knots 6,003 meters
Temperatures Readings
Current 28°C / 82°F
Dewpoint -5°C / 23°F
Humidity 11%
Altimeter 30.03" Hg
Pressure 1016.92 hPa
Elevation 658
METAR HSNN 151100Z 06010KT 6000 28/M05 Q1017
Observed Flight Rules
Feb-15 @ 11:00 UTC
(8 hours ago)
Wind Visibility
60° at 10 knots 6,003 meters
Temperature Dewpoint
28°C / 82°F -5°C / 23°F
Humidity Altimeter Pressure
11% 30.03" Hg 1016.92 hPa